Cosco Auckland — VRKF8 — position and weather

sailwx.info

Track history (hours):
 
Tides and Currents Weather Stations Pressure Air Temp Water Temp Dewpoint Dewpoint Depression Visibility Wind Speed Wind Dir Waves Ship Positions

Cosco Auckland

Last reported at 2017-Sep-10 15:37 UTC. Time now 2017-Sep-21 09:02 UTC.
Position N 09°11' W 079°52'.
Warning: this ship's position is 10 days out of date.

Length 261 m; draft 9 m.

Type: Ship (hazmat cat A). MMSI: 477765800.

Date/timePositionNaut miles runAvg speedWind from/ knotsBaromVisibWave heightAir tempDewpointWater temp
2017-Sep-10 15:37N 09°11' W 079°52'1 7.6
2017-Sep-10 15:30N 09°11' W 079°53'3 5.9
2017-Sep-10 15:00N 09°13' W 079°55'2 2.2
2017-Sep-10 14:00N 09°15' W 079°55'0 0.0
2017-Sep-10 13:30N 09°15' W 079°55'1 1.1
2017-Sep-10 13:00N 09°15' W 079°55'1 1.6
2017-Sep-10 12:29N 09°16' W 079°55'0 0.4
2017-Sep-10 12:00N 09°17' W 079°55'0 0.8
2017-Sep-10 11:30N 09°17' W 079°55'1 1.1
2017-Sep-10 11:00N 09°17' W 079°55'3 5.6
2017-Sep-10 10:30N 09°20' W 079°55'3 6.3
2017-Sep-10 10:00N 09°23' W 079°55'4 8.4
2017-Sep-10 09:30N 09°28' W 079°56'0 0.3
2017-Sep-10 09:00N 09°28' W 079°56'0 0.0
2017-Sep-10 08:30N 09°28' W 079°56'0 0.0
2017-Sep-10 08:00N 09°28' W 079°56'0 0.0
2017-Sep-10 07:30N 09°28' W 079°56'0 0.0
2017-Sep-10 07:00N 09°28' W 079°56'0 0.0
2017-Sep-10 06:30N 09°28' W 079°56'0 0.1
2017-Sep-10 06:00N 09°28' W 079°56'0 0.1
2017-Sep-10 05:30N 09°28' W 079°56'0 0.1
2017-Sep-10 05:00N 09°28' W 079°56'0 0.1
2017-Sep-10 04:30N 09°28' W 079°56'0 0.0
2017-Sep-10 04:00N 09°28' W 079°56'0 0.0
2017-Sep-10 03:30N 09°28' W 079°56'0 0.0
2017-Sep-10 03:00N 09°28' W 079°56'1 1.3
2017-Sep-10 02:31N 09°28' W 079°55'5 9.2
2017-Sep-10 02:00N 09°33' W 079°54'  
2017-Sep-04 01:43N 29°21' W 094°43'415.3
2017-Sep-04 01:26N 29°22' W 094°48'715.3
2017-Sep-04 00:57N 29°29' W 094°52'613.5
2017-Sep-04 00:30N 29°34' W 094°55'612.4
2017-Sep-04 00:00N 29°39' W 094°58'2 4.4
2017-Sep-03 23:30N 29°41' W 095°00'0 0.0
2017-Sep-03 22:58N 29°41' W 095°00'0 0.0
2017-Sep-03 22:28N 29°41' W 095°00'0 0.0
2017-Sep-03 21:58N 29°41' W 095°00'0 0.0
2017-Sep-03 21:28N 29°41' W 095°00'0 0.0
2017-Sep-03 20:59N 29°41' W 095°00'0 0.0
2017-Sep-03 20:29N 29°41' W 095°00'0 0.0
2017-Sep-03 19:58N 29°41' W 095°00'0 0.0
2017-Sep-03 19:26N 29°41' W 095°00'0 0.0
2017-Sep-03 18:59N 29°41' W 095°00'0 0.0
2017-Sep-03 18:28N 29°41' W 095°00'0 0.0
2017-Sep-03 17:56N 29°41' W 095°00'0 0.0
2017-Sep-03 17:28N 29°41' W 095°00'0 0.0
2017-Sep-03 16:59N 29°41' W 095°00'0 0.0
2017-Sep-03 16:28N 29°41' W 095°00'0 0.0
2017-Sep-03 15:58N 29°41' W 095°00'0 0.0
2017-Sep-03 15:28N 29°41' W 095°00'0 0.0
2017-Sep-03 14:58N 29°41' W 095°00'0 0.0
2017-Sep-03 13:58N 29°41' W 095°00'0 0.0
2017-Sep-03 13:29N 29°41' W 095°00'0 0.0
2017-Sep-03 12:58N 29°41' W 095°00'0 0.0
2017-Sep-03 12:28N 29°41' W 095°00'0 0.0
2017-Sep-03 11:58N 29°41' W 095°00'0 0.0
2017-Sep-03 11:28N 29°41' W 095°00'0 0.0
2017-Sep-03 10:58N 29°41' W 095°00'0 0.0
2017-Sep-03 10:29N 29°41' W 095°00'0 0.0
2017-Sep-03 09:58N 29°41' W 095°00'0 0.0
2017-Sep-03 09:28N 29°41' W 095°00'0 0.0
2017-Sep-03 08:58N 29°41' W 095°00'0 0.0
2017-Sep-03 08:28N 29°41' W 095°00'0 0.0
2017-Sep-03 07:55N 29°41' W 095°00'0 0.0
2017-Sep-03 07:28N 29°41' W 095°00'0 0.0
2017-Sep-03 06:58N 29°41' W 095°00'0 0.0
2017-Sep-03 06:28N 29°41' W 095°00'0 0.0
2017-Sep-03 05:58N 29°41' W 095°00'0 0.0
2017-Sep-03 05:28N 29°41' W 095°00'0 0.0
2017-Sep-03 04:58N 29°41' W 095°00'0 0.0
2017-Sep-03 04:28N 29°41' W 095°00'0 0.0
2017-Sep-03 03:59N 29°41' W 095°00'0 0.0
2017-Sep-03 03:28N 29°41' W 095°00'0 0.0
2017-Sep-03 02:58N 29°41' W 095°00'0 0.0
2017-Sep-03 02:28N 29°41' W 095°00'0 0.0
2017-Sep-03 01:59N 29°41' W 095°00'0 0.0
2017-Sep-03 01:28N 29°41' W 095°00'0 0.0
2017-Sep-03 00:58N 29°41' W 095°00'0 0.0
2017-Sep-03 00:28N 29°41' W 095°00'0 0.0
2017-Sep-02 23:58N 29°41' W 095°00'0 0.0
2017-Sep-02 23:28N 29°41' W 095°00'0 0.0
2017-Sep-02 22:59N 29°41' W 095°00'0 0.0
2017-Sep-02 22:29N 29°41' W 095°00'0 0.0
2017-Sep-02 21:55N 29°41' W 095°00'0 0.0
2017-Sep-02 21:29N 29°41' W 095°00'0 0.0
2017-Sep-02 20:58N 29°41' W 095°00'0 0.0
2017-Sep-02 20:29N 29°41' W 095°00'0 0.0
2017-Sep-02 19:59N 29°41' W 095°00'0 0.0
2017-Sep-02 19:28N 29°41' W 095°00'0 0.0
2017-Sep-02 18:58N 29°41' W 095°00'0 0.0
2017-Sep-02 18:28N 29°41' W 095°00'0 0.0
2017-Sep-02 17:58N 29°41' W 095°00'0 0.0
2017-Sep-02 17:28N 29°41' W 095°00'0 0.0
2017-Sep-02 16:58N 29°41' W 095°00'0 0.0
2017-Sep-02 16:28N 29°41' W 095°00'0 0.0
2017-Sep-02 15:58N 29°41' W 095°00'0 0.0
2017-Sep-02 15:29N 29°41' W 095°00'0 0.8
2017-Sep-02 15:01N 29°41' W 094°60'3 5.5
2017-Sep-02 14:31N 29°39' W 094°58'612.2
2017-Sep-02 14:01N 29°33' W 094°55'713.2
2017-Sep-02 13:30N 29°28' W 094°51'713.2
2017-Sep-02 13:00N 29°22' W 094°48'612.4
2017-Sep-02 12:30N 29°20' W 094°41'12 2.8
2017-Sep-02 08:17N 29°15' W 094°29'0 0.0
2017-Sep-02 07:41N 29°15' W 094°29'0 0.0
2017-Sep-02 07:29N 29°15' W 094°29'0 0.0
2017-Sep-02 06:41N 29°15' W 094°29'0 0.1
2017-Sep-02 06:29N 29°15' W 094°29'0 0.0
2017-Sep-01 09:47N 29°15' W 094°29'0 0.0
2017-Sep-01 09:26N 29°15' W 094°29'0 0.0
2017-Sep-01 08:59N 29°15' W 094°29'0 0.0
2017-Sep-01 08:29N 29°15' W 094°29'0 0.0
2017-Sep-01 07:59N 29°15' W 094°29'0 0.0
2017-Sep-01 07:29N 29°15' W 094°29'0 0.0
2017-Sep-01 06:59N 29°15' W 094°29'0 0.0
2017-Sep-01 06:26N 29°15' W 094°29'0 0.0
2017-Sep-01 05:56N 29°15' W 094°29'0 0.0
2017-Sep-01 05:29N 29°15' W 094°29'0 0.0
2017-Sep-01 04:59N 29°15' W 094°29'0 0.0
2017-Sep-01 04:29N 29°15' W 094°29'0 0.0
2017-Sep-01 03:53N 29°15' W 094°29'0 0.0
2017-Sep-01 03:29N 29°15' W 094°29'0 0.0
2017-Sep-01 02:59N 29°15' W 094°29'  
Track history (hours):
 
Tides and Currents Weather Stations Pressure Air Temp Water Temp Dewpoint Dewpoint Depression Visibility Wind Speed Wind Dir Waves Ship Positions

Cosco Auckland

Last reported at 2017-Sep-10 15:37 UTC. Time now 2017-Sep-21 09:02 UTC.
Position N 09°11' W 079°52'.
Warning: this ship's position is 10 days out of date.

Length 261 m; draft 9 m.

Type: Ship (hazmat cat A). MMSI: 477765800.

Date/timePositionNaut miles runAvg speedWind from/ knotsBaromVisibWave heightAir tempDewpointWater temp
2017-Sep-10 15:37N 09°11' W 079°52'1 7.6
2017-Sep-10 15:30N 09°11' W 079°53'3 5.9
2017-Sep-10 15:00N 09°13' W 079°55'2 2.2
2017-Sep-10 14:00N 09°15' W 079°55'0 0.0
2017-Sep-10 13:30N 09°15' W 079°55'1 1.1
2017-Sep-10 13:00N 09°15' W 079°55'1 1.6
2017-Sep-10 12:29N 09°16' W 079°55'0 0.4
2017-Sep-10 12:00N 09°17' W 079°55'0 0.8
2017-Sep-10 11:30N 09°17' W 079°55'1 1.1
2017-Sep-10 11:00N 09°17' W 079°55'3 5.6
2017-Sep-10 10:30N 09°20' W 079°55'3 6.3
2017-Sep-10 10:00N 09°23' W 079°55'4 8.4
2017-Sep-10 09:30N 09°28' W 079°56'0 0.3
2017-Sep-10 09:00N 09°28' W 079°56'0 0.0
2017-Sep-10 08:30N 09°28' W 079°56'0 0.0
2017-Sep-10 08:00N 09°28' W 079°56'0 0.0
2017-Sep-10 07:30N 09°28' W 079°56'0 0.0
2017-Sep-10 07:00N 09°28' W 079°56'0 0.0
2017-Sep-10 06:30N 09°28' W 079°56'0 0.1
2017-Sep-10 06:00N 09°28' W 079°56'0 0.1
2017-Sep-10 05:30N 09°28' W 079°56'0 0.1
2017-Sep-10 05:00N 09°28' W 079°56'0 0.1
2017-Sep-10 04:30N 09°28' W 079°56'0 0.0
2017-Sep-10 04:00N 09°28' W 079°56'0 0.0
2017-Sep-10 03:30N 09°28' W 079°56'0 0.0
2017-Sep-10 03:00N 09°28' W 079°56'1 1.3
2017-Sep-10 02:31N 09°28' W 079°55'5 9.2
2017-Sep-10 02:00N 09°33' W 079°54'  
2017-Sep-04 01:43N 29°21' W 094°43'415.3
2017-Sep-04 01:26N 29°22' W 094°48'715.3
2017-Sep-04 00:57N 29°29' W 094°52'613.5
2017-Sep-04 00:30N 29°34' W 094°55'612.4
2017-Sep-04 00:00N 29°39' W 094°58'2 4.4
2017-Sep-03 23:30N 29°41' W 095°00'0 0.0
2017-Sep-03 22:58N 29°41' W 095°00'0 0.0
2017-Sep-03 22:28N 29°41' W 095°00'0 0.0
2017-Sep-03 21:58N 29°41' W 095°00'0 0.0
2017-Sep-03 21:28N 29°41' W 095°00'0 0.0
2017-Sep-03 20:59N 29°41' W 095°00'0 0.0
2017-Sep-03 20:29N 29°41' W 095°00'0 0.0
2017-Sep-03 19:58N 29°41' W 095°00'0 0.0
2017-Sep-03 19:26N 29°41' W 095°00'0 0.0
2017-Sep-03 18:59N 29°41' W 095°00'0 0.0
2017-Sep-03 18:28N 29°41' W 095°00'0 0.0
2017-Sep-03 17:56N 29°41' W 095°00'0 0.0
2017-Sep-03 17:28N 29°41' W 095°00'0 0.0
2017-Sep-03 16:59N 29°41' W 095°00'0 0.0
2017-Sep-03 16:28N 29°41' W 095°00'0 0.0
2017-Sep-03 15:58N 29°41' W 095°00'0 0.0
2017-Sep-03 15:28N 29°41' W 095°00'0 0.0
2017-Sep-03 14:58N 29°41' W 095°00'0 0.0
2017-Sep-03 13:58N 29°41' W 095°00'0 0.0
2017-Sep-03 13:29N 29°41' W 095°00'0 0.0
2017-Sep-03 12:58N 29°41' W 095°00'0 0.0
2017-Sep-03 12:28N 29°41' W 095°00'0 0.0
2017-Sep-03 11:58N 29°41' W 095°00'0 0.0
2017-Sep-03 11:28N 29°41' W 095°00'0 0.0
2017-Sep-03 10:58N 29°41' W 095°00'0 0.0
2017-Sep-03 10:29N 29°41' W 095°00'0 0.0
2017-Sep-03 09:58N 29°41' W 095°00'0 0.0
2017-Sep-03 09:28N 29°41' W 095°00'0 0.0
2017-Sep-03 08:58N 29°41' W 095°00'0 0.0
2017-Sep-03 08:28N 29°41' W 095°00'0 0.0
2017-Sep-03 07:55N 29°41' W 095°00'0 0.0
2017-Sep-03 07:28N 29°41' W 095°00'0 0.0
2017-Sep-03 06:58N 29°41' W 095°00'0 0.0
2017-Sep-03 06:28N 29°41' W 095°00'0 0.0
2017-Sep-03 05:58N 29°41' W 095°00'0 0.0
2017-Sep-03 05:28N 29°41' W 095°00'0 0.0
2017-Sep-03 04:58N 29°41' W 095°00'0 0.0
2017-Sep-03 04:28N 29°41' W 095°00'0 0.0
2017-Sep-03 03:59N 29°41' W 095°00'0 0.0
2017-Sep-03 03:28N 29°41' W 095°00'0 0.0
2017-Sep-03 02:58N 29°41' W 095°00'0 0.0
2017-Sep-03 02:28N 29°41' W 095°00'0 0.0
2017-Sep-03 01:59N 29°41' W 095°00'0 0.0
2017-Sep-03 01:28N 29°41' W 095°00'0 0.0
2017-Sep-03 00:58N 29°41' W 095°00'0 0.0
2017-Sep-03 00:28N 29°41' W 095°00'0 0.0
2017-Sep-02 23:58N 29°41' W 095°00'0 0.0
2017-Sep-02 23:28N 29°41' W 095°00'0 0.0
2017-Sep-02 22:59N 29°41' W 095°00'0 0.0
2017-Sep-02 22:29N 29°41' W 095°00'0 0.0
2017-Sep-02 21:55N 29°41' W 095°00'0 0.0
2017-Sep-02 21:29N 29°41' W 095°00'0 0.0
2017-Sep-02 20:58N 29°41' W 095°00'0 0.0
2017-Sep-02 20:29N 29°41' W 095°00'0 0.0
2017-Sep-02 19:59N 29°41' W 095°00'0 0.0
2017-Sep-02 19:28N 29°41' W 095°00'0 0.0
2017-Sep-02 18:58N 29°41' W 095°00'0 0.0
2017-Sep-02 18:28N 29°41' W 095°00'0 0.0
2017-Sep-02 17:58N 29°41' W 095°00'0 0.0
2017-Sep-02 17:28N 29°41' W 095°00'0 0.0
2017-Sep-02 16:58N 29°41' W 095°00'0 0.0
2017-Sep-02 16:28N 29°41' W 095°00'0 0.0
2017-Sep-02 15:58N 29°41' W 095°00'0 0.0
2017-Sep-02 15:29N 29°41' W 095°00'0 0.8
2017-Sep-02 15:01N 29°41' W 094°60'3 5.5
2017-Sep-02 14:31N 29°39' W 094°58'612.2
2017-Sep-02 14:01N 29°33' W 094°55'713.2
2017-Sep-02 13:30N 29°28' W 094°51'713.2
2017-Sep-02 13:00N 29°22' W 094°48'612.4
2017-Sep-02 12:30N 29°20' W 094°41'12 2.8
2017-Sep-02 08:17N 29°15' W 094°29'0 0.0
2017-Sep-02 07:41N 29°15' W 094°29'0 0.0
2017-Sep-02 07:29N 29°15' W 094°29'0 0.0
2017-Sep-02 06:41N 29°15' W 094°29'0 0.1
2017-Sep-02 06:29N 29°15' W 094°29'0 0.0
2017-Sep-01 09:47N 29°15' W 094°29'0 0.0
2017-Sep-01 09:26N 29°15' W 094°29'0 0.0
2017-Sep-01 08:59N 29°15' W 094°29'0 0.0
2017-Sep-01 08:29N 29°15' W 094°29'0 0.0
2017-Sep-01 07:59N 29°15' W 094°29'0 0.0
2017-Sep-01 07:29N 29°15' W 094°29'0 0.0
2017-Sep-01 06:59N 29°15' W 094°29'0 0.0
2017-Sep-01 06:26N 29°15' W 094°29'0 0.0
2017-Sep-01 05:56N 29°15' W 094°29'0 0.0
2017-Sep-01 05:29N 29°15' W 094°29'0 0.0
2017-Sep-01 04:59N 29°15' W 094°29'0 0.0
2017-Sep-01 04:29N 29°15' W 094°29'0 0.0
2017-Sep-01 03:53N 29°15' W 094°29'0 0.0
2017-Sep-01 03:29N 29°15' W 094°29'0 0.0
2017-Sep-01 02:59N 29°15' W 094°29'  

Dump ship's entire track history